sensor_id;sensor_type;location;lat;lon;timestamp;P1;durP1;ratioP1;P2;durP2;ratioP2
29848;SDS011;16728;50.832;5.590;2022-07-29T00:01:15;7.82;;;1.98;;
29848;SDS011;16728;50.832;5.590;2022-07-29T00:04:19;7.40;;;1.85;;
29848;SDS011;16728;50.832;5.590;2022-07-29T00:07:22;3.40;;;1.40;;
29848;SDS011;16728;50.832;5.590;2022-07-29T00:10:24;5.63;;;1.63;;
29848;SDS011;16728;50.832;5.590;2022-07-29T00:13:26;6.30;;;1.80;;
29848;SDS011;16728;50.832;5.590;2022-07-29T00:16:33;4.72;;;1.38;;
29848;SDS011;16728;50.832;5.590;2022-07-29T00:19:35;2.80;;;1.40;;
29848;SDS011;16728;50.832;5.590;2022-07-29T00:22:37;8.32;;;2.08;;
29848;SDS011;16728;50.832;5.590;2022-07-29T00:25:40;5.95;;;1.67;;
29848;SDS011;16728;50.832;5.590;2022-07-29T00:28:42;5.53;;;1.60;;
29848;SDS011;16728;50.832;5.590;2022-07-29T00:31:44;5.75;;;2.35;;
29848;SDS011;16728;50.832;5.590;2022-07-29T00:34:46;4.80;;;1.65;;
29848;SDS011;16728;50.832;5.590;2022-07-29T00:38:27;2.55;;;1.40;;
29848;SDS011;16728;50.832;5.590;2022-07-29T00:41:28;8.65;;;1.83;;
29848;SDS011;16728;50.832;5.590;2022-07-29T00:44:40;7.20;;;1.63;;
29848;SDS011;16728;50.832;5.590;2022-07-29T00:47:42;4.18;;;1.80;;
29848;SDS011;16728;50.832;5.590;2022-07-29T00:50:44;4.97;;;1.98;;
29848;SDS011;16728;50.832;5.590;2022-07-29T00:53:46;8.40;;;1.85;;
29848;SDS011;16728;50.832;5.590;2022-07-29T00:56:52;5.97;;;1.80;;
29848;SDS011;16728;50.832;5.590;2022-07-29T00:59:54;5.63;;;1.70;;
29848;SDS011;16728;50.832;5.590;2022-07-29T01:02:57;5.63;;;1.90;;
29848;SDS011;16728;50.832;5.590;2022-07-29T01:05:59;7.13;;;1.67;;
29848;SDS011;16728;50.832;5.590;2022-07-29T01:09:01;2.25;;;1.70;;
29848;SDS011;16728;50.832;5.590;2022-07-29T01:12:04;3.20;;;1.85;;
29848;SDS011;16728;50.832;5.590;2022-07-29T01:15:08;4.63;;;1.60;;
29848;SDS011;16728;50.832;5.590;2022-07-29T01:18:18;6.28;;;1.75;;
29848;SDS011;16728;50.832;5.590;2022-07-29T01:21:44;5.47;;;2.20;;
29848;SDS011;16728;50.832;5.590;2022-07-29T01:31:59;6.95;;;1.90;;
29848;SDS011;16728;50.832;5.590;2022-07-29T01:35:12;4.35;;;1.70;;
29848;SDS011;16728;50.832;5.590;2022-07-29T01:38:29;7.80;;;1.77;;
29848;SDS011;16728;50.832;5.590;2022-07-29T01:41:32;6.75;;;1.90;;
29848;SDS011;16728;50.832;5.590;2022-07-29T01:44:39;5.47;;;1.88;;
29848;SDS011;16728;50.832;5.590;2022-07-29T01:47:58;12.98;;;1.80;;
29848;SDS011;16728;50.832;5.590;2022-07-29T01:51:05;6.55;;;1.80;;
29848;SDS011;16728;50.832;5.590;2022-07-29T01:54:35;4.97;;;1.70;;
29848;SDS011;16728;50.832;5.590;2022-07-29T01:57:47;6.10;;;1.73;;
29848;SDS011;16728;50.832;5.590;2022-07-29T02:00:49;8.80;;;1.85;;
29848;SDS011;16728;50.832;5.590;2022-07-29T02:03:53;4.20;;;1.80;;
29848;SDS011;16728;50.832;5.590;2022-07-29T02:07:00;2.88;;;1.42;;
29848;SDS011;16728;50.832;5.590;2022-07-29T02:10:05;7.25;;;1.85;;
29848;SDS011;16728;50.832;5.590;2022-07-29T02:13:09;7.03;;;1.98;;
29848;SDS011;16728;50.832;5.590;2022-07-29T02:16:13;4.75;;;1.52;;
29848;SDS011;16728;50.832;5.590;2022-07-29T02:19:18;4.22;;;1.67;;
29848;SDS011;16728;50.832;5.590;2022-07-29T02:22:23;6.45;;;1.88;;
29848;SDS011;16728;50.832;5.590;2022-07-29T02:25:27;6.22;;;1.70;;
29848;SDS011;16728;50.832;5.590;2022-07-29T02:28:38;5.00;;;1.77;;
29848;SDS011;16728;50.832;5.590;2022-07-29T02:31:41;8.20;;;2.13;;
29848;SDS011;16728;50.832;5.590;2022-07-29T02:34:46;3.85;;;1.80;;
29848;SDS011;16728;50.832;5.590;2022-07-29T02:37:49;5.70;;;2.08;;
29848;SDS011;16728;50.832;5.590;2022-07-29T02:41:11;6.97;;;2.30;;
29848;SDS011;16728;50.832;5.590;2022-07-29T02:44:18;3.03;;;1.95;;
29848;SDS011;16728;50.832;5.590;2022-07-29T02:47:27;7.53;;;2.28;;
29848;SDS011;16728;50.832;5.590;2022-07-29T02:50:44;8.20;;;2.13;;
29848;SDS011;16728;50.832;5.590;2022-07-29T02:53:51;4.22;;;1.95;;
29848;SDS011;16728;50.832;5.590;2022-07-29T02:56:55;5.05;;;1.95;;
29848;SDS011;16728;50.832;5.590;2022-07-29T03:00:05;4.35;;;2.10;;
29848;SDS011;16728;50.832;5.590;2022-07-29T03:03:11;4.65;;;2.03;;
29848;SDS011;16728;50.832;5.590;2022-07-29T03:06:17;5.88;;;2.13;;
29848;SDS011;16728;50.832;5.590;2022-07-29T03:09:38;7.57;;;2.28;;
29848;SDS011;16728;50.832;5.590;2022-07-29T03:12:42;4.63;;;2.53;;
29848;SDS011;16728;50.832;5.590;2022-07-29T03:15:45;8.90;;;3.05;;
29848;SDS011;16728;50.832;5.590;2022-07-29T03:18:48;8.25;;;2.97;;
29848;SDS011;16728;50.832;5.590;2022-07-29T03:21:50;9.87;;;2.97;;
29848;SDS011;16728;50.832;5.590;2022-07-29T03:24:53;9.60;;;2.92;;
29848;SDS011;16728;50.832;5.590;2022-07-29T03:27:54;14.15;;;2.75;;
29848;SDS011;16728;50.832;5.590;2022-07-29T03:30:57;5.22;;;2.85;;
29848;SDS011;16728;50.832;5.590;2022-07-29T03:34:00;10.83;;;2.90;;
29848;SDS011;16728;50.832;5.590;2022-07-29T03:37:01;9.90;;;3.00;;
29848;SDS011;16728;50.832;5.590;2022-07-29T03:40:05;8.13;;;2.75;;
29848;SDS011;16728;50.832;5.590;2022-07-29T03:43:11;7.20;;;2.67;;
29848;SDS011;16728;50.832;5.590;2022-07-29T03:46:15;8.85;;;2.90;;
29848;SDS011;16728;50.832;5.590;2022-07-29T03:52:21;5.38;;;2.97;;
29848;SDS011;16728;50.832;5.590;2022-07-29T03:55:23;4.85;;;2.70;;
29848;SDS011;16728;50.832;5.590;2022-07-29T03:58:26;5.67;;;3.10;;
29848;SDS011;16728;50.832;5.590;2022-07-29T04:01:29;4.65;;;2.60;;
29848;SDS011;16728;50.832;5.590;2022-07-29T04:04:34;9.40;;;3.78;;
29848;SDS011;16728;50.832;5.590;2022-07-29T04:07:36;9.07;;;3.63;;
29848;SDS011;16728;50.832;5.590;2022-07-29T04:10:38;7.93;;;3.70;;
29848;SDS011;16728;50.832;5.590;2022-07-29T04:13:40;10.20;;;3.80;;
29848;SDS011;16728;50.832;5.590;2022-07-29T04:16:42;9.98;;;3.65;;
29848;SDS011;16728;50.832;5.590;2022-07-29T04:19:43;6.95;;;3.00;;
29848;SDS011;16728;50.832;5.590;2022-07-29T04:22:46;8.65;;;2.80;;
29848;SDS011;16728;50.832;5.590;2022-07-29T04:25:48;7.78;;;2.60;;
29848;SDS011;16728;50.832;5.590;2022-07-29T04:28:50;8.45;;;3.20;;
29848;SDS011;16728;50.832;5.590;2022-07-29T04:31:51;9.70;;;3.10;;
29848;SDS011;16728;50.832;5.590;2022-07-29T04:34:53;11.23;;;2.75;;
29848;SDS011;16728;50.832;5.590;2022-07-29T04:37:55;5.30;;;2.92;;
29848;SDS011;16728;50.832;5.590;2022-07-29T04:40:57;8.27;;;3.45;;
29848;SDS011;16728;50.832;5.590;2022-07-29T04:44:00;6.77;;;3.13;;
29848;SDS011;16728;50.832;5.590;2022-07-29T04:47:07;5.40;;;3.05;;
29848;SDS011;16728;50.832;5.590;2022-07-29T04:50:10;11.87;;;3.20;;
29848;SDS011;16728;50.832;5.590;2022-07-29T04:53:12;6.55;;;2.83;;
29848;SDS011;16728;50.832;5.590;2022-07-29T04:56:13;6.72;;;3.25;;
29848;SDS011;16728;50.832;5.590;2022-07-29T04:59:15;8.05;;;3.60;;
29848;SDS011;16728;50.832;5.590;2022-07-29T05:02:17;10.25;;;4.25;;
29848;SDS011;16728;50.832;5.590;2022-07-29T05:05:19;12.18;;;4.10;;
29848;SDS011;16728;50.832;5.590;2022-07-29T05:08:21;6.50;;;3.20;;
29848;SDS011;16728;50.832;5.590;2022-07-29T05:11:23;9.73;;;3.72;;
29848;SDS011;16728;50.832;5.590;2022-07-29T05:14:30;8.40;;;3.13;;
29848;SDS011;16728;50.832;5.590;2022-07-29T05:17:32;8.18;;;3.45;;
29848;SDS011;16728;50.832;5.590;2022-07-29T05:20:34;6.50;;;2.90;;
29848;SDS011;16728;50.832;5.590;2022-07-29T05:23:36;6.32;;;3.03;;
29848;SDS011;16728;50.832;5.590;2022-07-29T05:26:38;8.88;;;3.47;;
29848;SDS011;16728;50.832;5.590;2022-07-29T05:29:40;9.75;;;2.95;;
29848;SDS011;16728;50.832;5.590;2022-07-29T05:32:46;3.83;;;2.40;;
29848;SDS011;16728;50.832;5.590;2022-07-29T05:35:48;5.93;;;3.08;;
29848;SDS011;16728;50.832;5.590;2022-07-29T05:38:50;9.32;;;3.20;;
29848;SDS011;16728;50.832;5.590;2022-07-29T05:41:53;6.63;;;2.67;;
29848;SDS011;16728;50.832;5.590;2022-07-29T05:44:55;8.27;;;2.50;;
29848;SDS011;16728;50.832;5.590;2022-07-29T05:47:57;8.82;;;3.20;;
29848;SDS011;16728;50.832;5.590;2022-07-29T05:50:59;9.70;;;2.75;;
29848;SDS011;16728;50.832;5.590;2022-07-29T05:54:01;7.65;;;3.00;;
29848;SDS011;16728;50.832;5.590;2022-07-29T05:57:03;9.73;;;3.38;;
29848;SDS011;16728;50.832;5.590;2022-07-29T06:00:06;7.68;;;3.70;;
29848;SDS011;16728;50.832;5.590;2022-07-29T06:03:09;8.52;;;4.00;;
29848;SDS011;16728;50.832;5.590;2022-07-29T06:06:11;7.97;;;4.50;;
29848;SDS011;16728;50.832;5.590;2022-07-29T06:09:13;8.02;;;4.35;;
29848;SDS011;16728;50.832;5.590;2022-07-29T06:12:15;6.93;;;4.10;;
29848;SDS011;16728;50.832;5.590;2022-07-29T06:15:17;11.25;;;4.60;;
29848;SDS011;16728;50.832;5.590;2022-07-29T06:18:19;11.20;;;4.53;;
29848;SDS011;16728;50.832;5.590;2022-07-29T06:21:21;8.00;;;4.38;;
29848;SDS011;16728;50.832;5.590;2022-07-29T06:24:24;8.10;;;4.10;;
29848;SDS011;16728;50.832;5.590;2022-07-29T06:27:25;9.15;;;4.03;;
29848;SDS011;16728;50.832;5.590;2022-07-29T06:30:27;9.05;;;4.00;;
29848;SDS011;16728;50.832;5.590;2022-07-29T06:33:30;9.40;;;3.97;;
29848;SDS011;16728;50.832;5.590;2022-07-29T06:36:41;8.30;;;4.03;;
29848;SDS011;16728;50.832;5.590;2022-07-29T06:39:43;7.28;;;4.00;;
29848;SDS011;16728;50.832;5.590;2022-07-29T06:42:44;6.55;;;4.35;;
29848;SDS011;16728;50.832;5.590;2022-07-29T06:45:46;8.15;;;3.88;;
29848;SDS011;16728;50.832;5.590;2022-07-29T06:48:48;11.02;;;4.45;;
29848;SDS011;16728;50.832;5.590;2022-07-29T06:51:51;5.82;;;3.95;;
29848;SDS011;16728;50.832;5.590;2022-07-29T06:54:53;5.38;;;3.50;;
29848;SDS011;16728;50.832;5.590;2022-07-29T06:57:56;11.30;;;4.88;;
29848;SDS011;16728;50.832;5.590;2022-07-29T07:00:58;7.15;;;4.13;;
29848;SDS011;16728;50.832;5.590;2022-07-29T07:04:02;13.38;;;4.90;;
29848;SDS011;16728;50.832;5.590;2022-07-29T07:07:04;14.23;;;5.00;;
29848;SDS011;16728;50.832;5.590;2022-07-29T07:10:06;8.23;;;4.40;;
29848;SDS011;16728;50.832;5.590;2022-07-29T07:13:08;8.73;;;4.53;;
29848;SDS011;16728;50.832;5.590;2022-07-29T07:16:10;9.52;;;4.80;;
29848;SDS011;16728;50.832;5.590;2022-07-29T07:19:12;8.45;;;4.60;;
29848;SDS011;16728;50.832;5.590;2022-07-29T07:22:14;6.13;;;4.15;;
29848;SDS011;16728;50.832;5.590;2022-07-29T07:25:16;6.20;;;4.25;;
29848;SDS011;16728;50.832;5.590;2022-07-29T07:28:18;6.50;;;4.05;;
29848;SDS011;16728;50.832;5.590;2022-07-29T07:31:25;7.85;;;4.05;;
29848;SDS011;16728;50.832;5.590;2022-07-29T07:34:27;6.65;;;4.28;;
29848;SDS011;16728;50.832;5.590;2022-07-29T07:37:32;7.55;;;4.75;;
29848;SDS011;16728;50.832;5.590;2022-07-29T07:40:35;7.82;;;5.05;;
29848;SDS011;16728;50.832;5.590;2022-07-29T07:43:36;9.82;;;5.40;;
29848;SDS011;16728;50.832;5.590;2022-07-29T07:46:39;8.07;;;5.25;;
29848;SDS011;16728;50.832;5.590;2022-07-29T07:49:42;10.18;;;5.47;;
29848;SDS011;16728;50.832;5.590;2022-07-29T07:52:45;11.00;;;5.47;;
29848;SDS011;16728;50.832;5.590;2022-07-29T07:55:48;8.77;;;6.53;;
29848;SDS011;16728;50.832;5.590;2022-07-29T07:59:10;12.65;;;7.30;;
29848;SDS011;16728;50.832;5.590;2022-07-29T08:02:12;8.48;;;6.63;;
29848;SDS011;16728;50.832;5.590;2022-07-29T08:05:14;9.18;;;7.63;;
29848;SDS011;16728;50.832;5.590;2022-07-29T08:08:18;11.52;;;6.78;;
29848;SDS011;16728;50.832;5.590;2022-07-29T08:11:20;8.73;;;6.20;;
29848;SDS011;16728;50.832;5.590;2022-07-29T08:14:22;7.95;;;6.28;;
29848;SDS011;16728;50.832;5.590;2022-07-29T08:17:24;10.32;;;6.15;;
29848;SDS011;16728;50.832;5.590;2022-07-29T08:20:26;8.05;;;6.60;;
29848;SDS011;16728;50.832;5.590;2022-07-29T08:23:28;11.73;;;6.28;;
29848;SDS011;16728;50.832;5.590;2022-07-29T08:26:48;11.73;;;6.60;;
29848;SDS011;16728;50.832;5.590;2022-07-29T08:29:50;9.82;;;5.80;;
29848;SDS011;16728;50.832;5.590;2022-07-29T08:32:52;8.82;;;5.65;;
29848;SDS011;16728;50.832;5.590;2022-07-29T08:35:56;10.27;;;5.95;;
29848;SDS011;16728;50.832;5.590;2022-07-29T08:38:58;10.38;;;5.85;;
29848;SDS011;16728;50.832;5.590;2022-07-29T08:42:00;6.75;;;6.03;;
29848;SDS011;16728;50.832;5.590;2022-07-29T08:45:02;8.57;;;5.38;;
29848;SDS011;16728;50.832;5.590;2022-07-29T08:48:06;7.57;;;5.40;;
29848;SDS011;16728;50.832;5.590;2022-07-29T08:51:17;9.15;;;5.40;;
29848;SDS011;16728;50.832;5.590;2022-07-29T08:54:21;8.40;;;5.88;;
29848;SDS011;16728;50.832;5.590;2022-07-29T09:00:27;7.40;;;5.47;;
29848;SDS011;16728;50.832;5.590;2022-07-29T09:06:34;8.13;;;5.07;;
29848;SDS011;16728;50.832;5.590;2022-07-29T09:09:40;7.10;;;4.93;;
29848;SDS011;16728;50.832;5.590;2022-07-29T09:12:42;11.57;;;5.38;;
29848;SDS011;16728;50.832;5.590;2022-07-29T09:15:44;9.48;;;5.30;;
29848;SDS011;16728;50.832;5.590;2022-07-29T09:18:46;12.55;;;6.05;;
29848;SDS011;16728;50.832;5.590;2022-07-29T09:21:48;7.60;;;5.25;;
29848;SDS011;16728;50.832;5.590;2022-07-29T09:24:59;7.78;;;4.90;;
29848;SDS011;16728;50.832;5.590;2022-07-29T09:28:05;7.32;;;4.85;;
29848;SDS011;16728;50.832;5.590;2022-07-29T09:31:12;7.68;;;4.32;;
29848;SDS011;16728;50.832;5.590;2022-07-29T09:34:16;7.88;;;4.45;;
29848;SDS011;16728;50.832;5.590;2022-07-29T09:37:28;8.13;;;5.40;;
29848;SDS011;16728;50.832;5.590;2022-07-29T09:40:30;7.47;;;4.82;;
29848;SDS011;16728;50.832;5.590;2022-07-29T09:43:33;8.18;;;4.95;;
29848;SDS011;16728;50.832;5.590;2022-07-29T09:46:35;15.13;;;4.47;;
29848;SDS011;16728;50.832;5.590;2022-07-29T09:49:50;7.50;;;4.20;;
29848;SDS011;16728;50.832;5.590;2022-07-29T09:52:59;9.43;;;4.53;;
29848;SDS011;16728;50.832;5.590;2022-07-29T09:56:01;8.35;;;4.55;;
29848;SDS011;16728;50.832;5.590;2022-07-29T09:59:07;10.97;;;4.50;;
29848;SDS011;16728;50.832;5.590;2022-07-29T10:02:13;5.65;;;3.92;;
29848;SDS011;16728;50.832;5.590;2022-07-29T10:05:24;9.27;;;4.65;;
29848;SDS011;16728;50.832;5.590;2022-07-29T10:08:37;6.93;;;4.68;;
29848;SDS011;16728;50.832;5.590;2022-07-29T10:11:39;6.32;;;3.88;;
29848;SDS011;16728;50.832;5.590;2022-07-29T10:14:50;12.43;;;4.20;;
29848;SDS011;16728;50.832;5.590;2022-07-29T10:17:52;7.40;;;3.80;;
29848;SDS011;16728;50.832;5.590;2022-07-29T10:20:56;3.65;;;2.92;;
29848;SDS011;16728;50.832;5.590;2022-07-29T10:23:58;8.35;;;3.15;;
29848;SDS011;16728;50.832;5.590;2022-07-29T10:27:02;5.82;;;2.40;;
29848;SDS011;16728;50.832;5.590;2022-07-29T10:30:05;4.75;;;2.00;;
29848;SDS011;16728;50.832;5.590;2022-07-29T10:36:19;3.40;;;2.30;;
29848;SDS011;16728;50.832;5.590;2022-07-29T10:43:50;9.05;;;2.92;;
29848;SDS011;16728;50.832;5.590;2022-07-29T10:46:54;5.32;;;2.65;;
29848;SDS011;16728;50.832;5.590;2022-07-29T10:49:58;4.38;;;2.40;;
29848;SDS011;16728;50.832;5.590;2022-07-29T10:53:01;4.85;;;2.70;;
29848;SDS011;16728;50.832;5.590;2022-07-29T10:56:22;3.65;;;1.83;;
29848;SDS011;16728;50.832;5.590;2022-07-29T10:59:28;4.35;;;2.20;;
29848;SDS011;16728;50.832;5.590;2022-07-29T11:05:51;6.15;;;2.30;;
29848;SDS011;16728;50.832;5.590;2022-07-29T11:15:52;3.88;;;2.05;;
29848;SDS011;16728;50.832;5.590;2022-07-29T11:22:31;8.45;;;2.20;;
29848;SDS011;16728;50.832;5.590;2022-07-29T11:25:34;6.15;;;2.03;;
29848;SDS011;16728;50.832;5.590;2022-07-29T11:29:25;7.18;;;2.17;;
29848;SDS011;16728;50.832;5.590;2022-07-29T11:32:24;2.97;;;2.25;;
29848;SDS011;16728;50.832;5.590;2022-07-29T11:35:29;6.55;;;2.75;;
29848;SDS011;16728;50.832;5.590;2022-07-29T11:38:40;6.00;;;2.20;;
29848;SDS011;16728;50.832;5.590;2022-07-29T11:41:42;28.67;;;3.57;;
29848;SDS011;16728;50.832;5.590;2022-07-29T11:48:27;5.65;;;2.42;;
29848;SDS011;16728;50.832;5.590;2022-07-29T11:51:32;6.03;;;3.15;;
29848;SDS011;16728;50.832;5.590;2022-07-29T11:54:34;7.93;;;2.80;;
29848;SDS011;16728;50.832;5.590;2022-07-29T11:57:58;4.57;;;2.85;;
29848;SDS011;16728;50.832;5.590;2022-07-29T12:01:04;4.82;;;3.30;;
29848;SDS011;16728;50.832;5.590;2022-07-29T12:04:10;5.65;;;3.10;;
29848;SDS011;16728;50.832;5.590;2022-07-29T12:07:13;8.02;;;3.05;;
29848;SDS011;16728;50.832;5.590;2022-07-29T12:10:16;8.90;;;3.38;;
29848;SDS011;16728;50.832;5.590;2022-07-29T12:13:20;6.57;;;3.63;;
29848;SDS011;16728;50.832;5.590;2022-07-29T12:16:37;3.05;;;2.70;;
29848;SDS011;16728;50.832;5.590;2022-07-29T12:19:44;3.90;;;2.60;;
29848;SDS011;16728;50.832;5.590;2022-07-29T12:22:46;4.03;;;2.30;;
29848;SDS011;16728;50.832;5.590;2022-07-29T12:25:50;3.60;;;1.95;;
29848;SDS011;16728;50.832;5.590;2022-07-29T12:28:54;3.25;;;2.42;;
29848;SDS011;16728;50.832;5.590;2022-07-29T12:31:57;4.32;;;2.45;;
29848;SDS011;16728;50.832;5.590;2022-07-29T12:35:07;5.13;;;2.88;;
29848;SDS011;16728;50.832;5.590;2022-07-29T12:38:12;6.43;;;2.40;;
29848;SDS011;16728;50.832;5.590;2022-07-29T12:41:14;3.95;;;2.00;;
29848;SDS011;16728;50.832;5.590;2022-07-29T12:44:16;3.70;;;2.33;;
29848;SDS011;16728;50.832;5.590;2022-07-29T12:47:18;5.40;;;2.58;;
29848;SDS011;16728;50.832;5.590;2022-07-29T12:50:21;3.90;;;1.92;;
29848;SDS011;16728;50.832;5.590;2022-07-29T12:53:26;3.17;;;2.20;;
29848;SDS011;16728;50.832;5.590;2022-07-29T12:56:29;5.23;;;2.57;;
29848;SDS011;16728;50.832;5.590;2022-07-29T12:59:43;31.20;;;3.90;;
29848;SDS011;16728;50.832;5.590;2022-07-29T13:02:46;7.85;;;2.67;;
29848;SDS011;16728;50.832;5.590;2022-07-29T13:05:56;3.30;;;2.35;;
29848;SDS011;16728;50.832;5.590;2022-07-29T13:09:03;2.33;;;2.08;;
29848;SDS011;16728;50.832;5.590;2022-07-29T13:12:11;3.00;;;2.20;;
29848;SDS011;16728;50.832;5.590;2022-07-29T13:15:14;3.63;;;2.30;;
29848;SDS011;16728;50.832;5.590;2022-07-29T13:18:27;3.58;;;2.38;;
29848;SDS011;16728;50.832;5.590;2022-07-29T13:21:33;3.17;;;2.10;;
29848;SDS011;16728;50.832;5.590;2022-07-29T13:28:00;2.50;;;2.03;;
29848;SDS011;16728;50.832;5.590;2022-07-29T13:31:02;8.30;;;2.10;;
29848;SDS011;16728;50.832;5.590;2022-07-29T13:34:05;3.78;;;2.17;;
29848;SDS011;16728;50.832;5.590;2022-07-29T13:37:07;3.42;;;2.30;;
29848;SDS011;16728;50.832;5.590;2022-07-29T13:40:09;4.35;;;1.90;;
29848;SDS011;16728;50.832;5.590;2022-07-29T13:43:12;4.60;;;2.25;;
29848;SDS011;16728;50.832;5.590;2022-07-29T13:46:14;4.60;;;2.42;;
29848;SDS011;16728;50.832;5.590;2022-07-29T13:49:16;5.72;;;2.45;;
29848;SDS011;16728;50.832;5.590;2022-07-29T13:52:18;4.43;;;2.10;;
29848;SDS011;16728;50.832;5.590;2022-07-29T13:55:21;2.38;;;2.10;;
29848;SDS011;16728;50.832;5.590;2022-07-29T13:58:23;4.68;;;1.90;;
29848;SDS011;16728;50.832;5.590;2022-07-29T14:01:25;5.15;;;2.03;;
29848;SDS011;16728;50.832;5.590;2022-07-29T14:04:28;7.68;;;2.17;;
29848;SDS011;16728;50.832;5.590;2022-07-29T14:07:30;5.18;;;2.30;;
29848;SDS011;16728;50.832;5.590;2022-07-29T14:10:32;4.55;;;2.53;;
29848;SDS011;16728;50.832;5.590;2022-07-29T14:13:34;3.35;;;1.67;;
29848;SDS011;16728;50.832;5.590;2022-07-29T14:16:36;4.85;;;2.65;;
29848;SDS011;16728;50.832;5.590;2022-07-29T14:19:43;3.58;;;2.47;;
29848;SDS011;16728;50.832;5.590;2022-07-29T14:22:45;2.55;;;2.20;;
29848;SDS011;16728;50.832;5.590;2022-07-29T14:25:48;3.65;;;2.30;;
29848;SDS011;16728;50.832;5.590;2022-07-29T14:28:50;4.80;;;2.17;;
29848;SDS011;16728;50.832;5.590;2022-07-29T14:31:52;2.72;;;1.83;;
29848;SDS011;16728;50.832;5.590;2022-07-29T14:34:54;2.85;;;2.20;;
29848;SDS011;16728;50.832;5.590;2022-07-29T14:37:56;4.97;;;2.10;;
29848;SDS011;16728;50.832;5.590;2022-07-29T14:40:58;2.90;;;2.08;;
29848;SDS011;16728;50.832;5.590;2022-07-29T14:44:00;4.68;;;2.42;;
29848;SDS011;16728;50.832;5.590;2022-07-29T14:47:02;4.07;;;2.25;;
29848;SDS011;16728;50.832;5.590;2022-07-29T14:50:08;2.60;;;2.33;;
29848;SDS011;16728;50.832;5.590;2022-07-29T14:53:10;5.53;;;2.40;;
29848;SDS011;16728;50.832;5.590;2022-07-29T14:56:14;2.90;;;2.33;;
29848;SDS011;16728;50.832;5.590;2022-07-29T14:59:35;5.45;;;2.10;;
29848;SDS011;16728;50.832;5.590;2022-07-29T15:02:37;7.68;;;2.40;;
29848;SDS011;16728;50.832;5.590;2022-07-29T15:05:59;4.03;;;2.20;;
29848;SDS011;16728;50.832;5.590;2022-07-29T15:09:01;2.88;;;2.00;;
29848;SDS011;16728;50.832;5.590;2022-07-29T15:12:03;3.40;;;2.08;;
29848;SDS011;16728;50.832;5.590;2022-07-29T15:15:06;4.22;;;2.00;;
29848;SDS011;16728;50.832;5.590;2022-07-29T15:18:08;3.95;;;2.00;;
29848;SDS011;16728;50.832;5.590;2022-07-29T15:21:10;8.05;;;2.00;;
29848;SDS011;16728;50.832;5.590;2022-07-29T15:24:12;5.80;;;1.98;;
29848;SDS011;16728;50.832;5.590;2022-07-29T15:27:13;6.15;;;2.10;;
29848;SDS011;16728;50.832;5.590;2022-07-29T15:30:16;2.58;;;2.08;;
29848;SDS011;16728;50.832;5.590;2022-07-29T15:33:34;3.72;;;1.90;;
29848;SDS011;16728;50.832;5.590;2022-07-29T15:36:36;7.70;;;2.08;;
29848;SDS011;16728;50.832;5.590;2022-07-29T15:39:54;7.95;;;2.05;;
29848;SDS011;16728;50.832;5.590;2022-07-29T15:43:03;3.83;;;2.00;;
29848;SDS011;16728;50.832;5.590;2022-07-29T15:46:07;3.30;;;2.15;;
29848;SDS011;16728;50.832;5.590;2022-07-29T15:49:27;8.00;;;2.10;;
29848;SDS011;16728;50.832;5.590;2022-07-29T15:52:49;3.03;;;1.92;;
29848;SDS011;16728;50.832;5.590;2022-07-29T15:55:51;3.75;;;1.70;;
29848;SDS011;16728;50.832;5.590;2022-07-29T15:58:52;2.28;;;1.60;;
29848;SDS011;16728;50.832;5.590;2022-07-29T16:01:54;3.25;;;1.95;;
29848;SDS011;16728;50.832;5.590;2022-07-29T16:04:56;3.40;;;1.88;;
29848;SDS011;16728;50.832;5.590;2022-07-29T16:07:58;4.60;;;1.67;;
29848;SDS011;16728;50.832;5.590;2022-07-29T16:11:01;4.15;;;1.85;;
29848;SDS011;16728;50.832;5.590;2022-07-29T16:14:03;6.72;;;2.08;;
29848;SDS011;16728;50.832;5.590;2022-07-29T16:17:09;6.32;;;1.70;;
29848;SDS011;16728;50.832;5.590;2022-07-29T16:20:15;4.30;;;1.90;;
29848;SDS011;16728;50.832;5.590;2022-07-29T16:23:17;4.82;;;2.08;;
29848;SDS011;16728;50.832;5.590;2022-07-29T16:26:19;5.13;;;1.75;;
29848;SDS011;16728;50.832;5.590;2022-07-29T16:29:21;7.78;;;2.10;;
29848;SDS011;16728;50.832;5.590;2022-07-29T16:32:22;3.40;;;1.80;;
29848;SDS011;16728;50.832;5.590;2022-07-29T16:35:24;3.55;;;1.88;;
29848;SDS011;16728;50.832;5.590;2022-07-29T16:38:40;6.88;;;2.58;;
29848;SDS011;16728;50.832;5.590;2022-07-29T16:41:47;3.85;;;1.80;;
29848;SDS011;16728;50.832;5.590;2022-07-29T16:44:49;6.28;;;1.95;;
29848;SDS011;16728;50.832;5.590;2022-07-29T16:47:54;9.18;;;1.77;;
29848;SDS011;16728;50.832;5.590;2022-07-29T16:51:01;5.18;;;2.00;;
29848;SDS011;16728;50.832;5.590;2022-07-29T16:54:03;5.07;;;2.15;;
29848;SDS011;16728;50.832;5.590;2022-07-29T16:57:05;6.93;;;2.10;;
29848;SDS011;16728;50.832;5.590;2022-07-29T17:00:07;4.63;;;2.20;;
29848;SDS011;16728;50.832;5.590;2022-07-29T17:03:09;7.50;;;2.25;;
29848;SDS011;16728;50.832;5.590;2022-07-29T17:06:13;6.68;;;2.38;;
29848;SDS011;16728;50.832;5.590;2022-07-29T17:09:15;5.63;;;1.98;;
29848;SDS011;16728;50.832;5.590;2022-07-29T17:12:18;3.80;;;1.83;;
29848;SDS011;16728;50.832;5.590;2022-07-29T17:15:19;6.72;;;1.98;;
29848;SDS011;16728;50.832;5.590;2022-07-29T17:18:21;5.30;;;2.00;;
29848;SDS011;16728;50.832;5.590;2022-07-29T17:21:25;6.03;;;2.00;;
29848;SDS011;16728;50.832;5.590;2022-07-29T17:24:27;5.80;;;2.28;;
29848;SDS011;16728;50.832;5.590;2022-07-29T17:27:29;6.40;;;1.70;;
29848;SDS011;16728;50.832;5.590;2022-07-29T17:30:33;6.07;;;2.05;;
29848;SDS011;16728;50.832;5.590;2022-07-29T17:33:35;2.40;;;1.70;;
29848;SDS011;16728;50.832;5.590;2022-07-29T17:36:37;6.75;;;1.83;;
29848;SDS011;16728;50.832;5.590;2022-07-29T17:39:40;7.18;;;1.98;;
29848;SDS011;16728;50.832;5.590;2022-07-29T17:42:42;5.78;;;1.95;;
29848;SDS011;16728;50.832;5.590;2022-07-29T17:45:44;2.95;;;1.80;;
29848;SDS011;16728;50.832;5.590;2022-07-29T17:48:50;6.70;;;2.38;;
29848;SDS011;16728;50.832;5.590;2022-07-29T17:51:56;6.80;;;1.95;;
29848;SDS011;16728;50.832;5.590;2022-07-29T17:55:03;5.07;;;1.70;;
29848;SDS011;16728;50.832;5.590;2022-07-29T17:58:10;7.57;;;2.40;;
29848;SDS011;16728;50.832;5.590;2022-07-29T18:01:15;6.68;;;2.63;;
29848;SDS011;16728;50.832;5.590;2022-07-29T18:04:18;5.32;;;3.33;;
29848;SDS011;16728;50.832;5.590;2022-07-29T18:07:21;3.22;;;2.28;;
29848;SDS011;16728;50.832;5.590;2022-07-29T18:10:23;3.15;;;1.85;;
29848;SDS011;16728;50.832;5.590;2022-07-29T18:13:25;3.40;;;1.80;;
29848;SDS011;16728;50.832;5.590;2022-07-29T18:16:27;3.13;;;1.55;;
29848;SDS011;16728;50.832;5.590;2022-07-29T18:19:29;4.43;;;1.73;;
29848;SDS011;16728;50.832;5.590;2022-07-29T18:22:31;6.35;;;2.00;;
29848;SDS011;16728;50.832;5.590;2022-07-29T18:25:33;6.57;;;2.10;;
29848;SDS011;16728;50.832;5.590;2022-07-29T18:28:35;7.38;;;1.92;;
29848;SDS011;16728;50.832;5.590;2022-07-29T18:31:40;3.05;;;1.70;;
29848;SDS011;16728;50.832;5.590;2022-07-29T18:34:42;10.47;;;1.90;;
29848;SDS011;16728;50.832;5.590;2022-07-29T18:37:45;3.00;;;1.52;;
29848;SDS011;16728;50.832;5.590;2022-07-29T18:41:02;6.22;;;2.03;;
29848;SDS011;16728;50.832;5.590;2022-07-29T18:44:04;4.10;;;1.70;;
29848;SDS011;16728;50.832;5.590;2022-07-29T18:47:07;5.43;;;2.45;;
29848;SDS011;16728;50.832;5.590;2022-07-29T18:50:12;8.63;;;3.50;;
29848;SDS011;16728;50.832;5.590;2022-07-29T18:53:13;10.40;;;2.88;;
29848;SDS011;16728;50.832;5.590;2022-07-29T18:56:15;9.38;;;2.58;;
29848;SDS011;16728;50.832;5.590;2022-07-29T18:59:18;6.13;;;2.22;;
29848;SDS011;16728;50.832;5.590;2022-07-29T19:02:21;5.35;;;1.90;;
29848;SDS011;16728;50.832;5.590;2022-07-29T19:05:23;5.47;;;2.10;;
29848;SDS011;16728;50.832;5.590;2022-07-29T19:08:25;3.83;;;2.08;;
29848;SDS011;16728;50.832;5.590;2022-07-29T19:11:27;5.25;;;1.70;;
29848;SDS011;16728;50.832;5.590;2022-07-29T19:14:29;8.30;;;2.25;;